Ridgway, CO

10:23 PM MDT on May 27, 2017 (GMT -0600)
Vista Terrace | | Change Station
Active Advisory: Flood Advisory Active Notice: Flood Advisory

Elev 7138 ft 38.16 °N, 107.74 °W | Updated 2 seconds ago

Clear
Clear
48.4 °F
Feels Like 46 °F
N
5.0
Wind Variable Wind from SE

Today
High -- | Low -- °F
--% Chance of Precip.
Yesterday
High -- | Low -- °F
Precip. -- in
Pressure 30.09 in
Visibility 10.0 miles
Clouds Clear
Windchill 46 °F
Dew Point 34 °F
Humidity 58%
Rainfall 0.00 in
Snow Depth Not available.
5:51 AM 8:25 PM
Waxing Crescent, 8% visible
METAR KMTJ 280353Z AUTO 00000KT 10SM CLR 13/M02 A3025 RMK AO2 SLP190 T01331017
Pressure 30.09 in
Visibility 10.0 miles
Clouds Clear
Windchill 46 °F
Dew Point 34 °F
Humidity 58%
Rainfall 0.00 in
Snow Depth Not available.
5:51 AM 8:25 PM
Waxing Crescent, 8% visible
METAR KMTJ 280353Z AUTO 00000KT 10SM CLR 13/M02 A3025 RMK AO2 SLP190 T01331017

Get Your Daily Forecast Email!

Thanks for signing up!

Be on the lookout for a verification email in your inbox.

You'll start receiving severe weather alerts in your inbox..

×

10-Day Weather Forecast

Almanac

Astronomy

May. 27, 2017 Rise Set
Actual Time
Civil Twilight
Nautical Twilight
Astronomical Twilight
Moon
Length of Visible Light
Length of Day
Tomorrow will be .
, % of the Moon is Illuminated

Today's Extremes

State Highs State Lows

Community

WunderPhotos

Category 6

Welcome to Category 6. This is the collective home for Weather Underground's featured writeups by Dr. Jeff Masters (right), Bob Henson (left), Chris Burt, and other regular contributors.

Nearby

Air Quality

  Air Quality AQ Index Pollutant
Not available.

Snow Depth

Station Depth Elevation

Earthquake Activity

City Distance Mag. Time & Date
Minimum magnitude displayed is 2.5.

Coastal Water Temperatures

Place Temperature

Stations

Nearby Weather Stations

Station Location Temp. Windchill Dew Point Humidity Wind Precip. Elev Updated Type
                   

Watches & Warnings

Flood Advisory
Issued: 10:16 AM MDT May. 27, 2017 – National Weather Service

The flood advisory continues for
the Gunnison river above Grand Junction
* until Monday evening.
* At 08 am Saturday the stage was 11.3 feet.
* Bankfull stage is 8.6 feet.
* Flood stage is 13.0 feet.
* Forecast... the river will continue to fall.



               Fld observed forecast 6 a.M.
Location stg stg day time sun Mon Tue

Gunnison river
grand junc 13.0 11.3 Sat 08 am 10.8 10.6 9.6


Lat... Lon 3878 10825 3870 10825 3903 10862 3906 10859
      3899 10842






1016 am MDT Sat may 27 2017

The flood advisory continues for
the Gunnison river at Delta
* until Monday evening.
* At 09 am Saturday the stage was 9.4 feet.
* Bankfull stage is 8.0 feet.
* Flood stage is 12.0 feet.
* Forecast... the river will continue to fall.



               Fld observed forecast 6 a.M.
Location stg stg day time sun Mon Tue

Gunnison river
Delta 12.0 9.4 Sat 09 am 9.1 8.9 8.1


Lat... Lon 3876 10785 3870 10825 3878 10825 3880 10784